DAAG/ALG METAR and TAF weather

Enter ICAO airport designator
Station Type Date Time Source
DAAG METAR 2018/12/13 15:00 UTC NOAA

DAAG 131500Z 28006KT 250V310 9999 FEW026 SCT053 BKN086 17/10 Q1009


Station Type Date Time Source
DAAG Decoded METAR 2018/12/13 15:00 UTC NOAA

Dar-El-Beida, Algeria (DAAG) 36-43N 003-15E 25M
Dec 13, 2018 - 10:00 AM EST / 2018.12.13 1500 UTC
Wind: from the W (280 degrees) at 7 MPH (6 KT) (direction variable):0
Visibility: greater than 7 mile(s):0
Sky conditions: mostly cloudy
Temperature: 62 F (17 C)
Dew Point: 50 F (10 C)
Relative Humidity: 63%
Pressure (altimeter): 29.80 in. Hg (1009 hPa)
ob: DAAG 131500Z 28006KT 250V310 9999 FEW026 SCT053 BKN086 17/10 Q1009
cycle: 15

Station Type Date Time Source
DAAG TAF 2018/12/13 12:33 UTC NOAA

TAF TAF DAAG 131100Z 1312/1412 26010KT 9999 FEW023 SCT50 PROB30
TEMPO 1312/1318 FEW020TCU
BECMG 1318/1322 25020KT
TEMPO 1318/1412 24020G30KT 5000 -RA FEW023CB PROB40
TEMPO 1400/1409 28020G35KT 4000 -TSRA FEW020CB


Example: see airport list